Thetys II — FGTO — position and weather

sailwx.info

Track history (hours):
 
Tides and Currents Weather Stations Pressure Air Temp Water Temp Dewpoint Dewpoint Depression Visibility Wind Speed Wind Dir Waves Ship Positions

Oceanographic research ship Thetys II (France)

Last reported at 2018-Jun-22 09:04 UTC. Time now 2018-Jun-24 09:17 UTC.
Position N 38°28' E 014°58'.

Length 25 m; beam 8 m.

Type: Ship. MMSI: 227212000.

Date/timePositionNaut miles runAvg speedWind from/ knotsBaromVisibWave heightAir tempDewpointWater temp
2018-Jun-22 09:04N 38°28' E 014°58'4 0.1
2018-Jun-21 06:20N 38°28' E 015°03'8 2.8
2018-Jun-21 03:31N 38°26' E 015°13'1 4.2
2018-Jun-21 03:15N 38°26' E 015°14'3 4.3
2018-Jun-21 02:37N 38°26' E 015°18'0 4.0
2018-Jun-21 02:30N 38°26' E 015°17'2 4.4
2018-Jun-21 02:00N 38°26' E 015°14'7 3.5
2018-Jun-20 23:57N 38°25' E 015°24'2 4.3
2018-Jun-20 23:28N 38°25' E 015°26'2 4.3
2018-Jun-20 22:58N 38°25' E 015°29'2 4.4
2018-Jun-20 22:30N 38°25' E 015°32'2 4.4
2018-Jun-20 22:00N 38°25' E 015°34'2 4.5
2018-Jun-20 21:30N 38°25' E 015°37'2 4.5
2018-Jun-20 21:00N 38°24' E 015°40'9 4.4
2018-Jun-20 18:56N 38°15' E 015°40'4 8.6
2018-Jun-20 18:30N 38°12' E 015°37'4 8.4
2018-Jun-20 18:00N 38°08' E 015°37'5 9.3
2018-Jun-20 17:30N 38°04' E 015°36'510.6
2018-Jun-20 17:00N 37°58' E 015°36'  
Track history (hours):
 
Tides and Currents Weather Stations Pressure Air Temp Water Temp Dewpoint Dewpoint Depression Visibility Wind Speed Wind Dir Waves Ship Positions

Oceanographic research ship Thetys II (France)

Last reported at 2018-Jun-22 09:04 UTC. Time now 2018-Jun-24 09:17 UTC.
Position N 38°28' E 014°58'.

Length 25 m; beam 8 m.

Type: Ship. MMSI: 227212000.

Date/timePositionNaut miles runAvg speedWind from/ knotsBaromVisibWave heightAir tempDewpointWater temp
2018-Jun-22 09:04N 38°28' E 014°58'4 0.1
2018-Jun-21 06:20N 38°28' E 015°03'8 2.8
2018-Jun-21 03:31N 38°26' E 015°13'1 4.2
2018-Jun-21 03:15N 38°26' E 015°14'3 4.3
2018-Jun-21 02:37N 38°26' E 015°18'0 4.0
2018-Jun-21 02:30N 38°26' E 015°17'2 4.4
2018-Jun-21 02:00N 38°26' E 015°14'7 3.5
2018-Jun-20 23:57N 38°25' E 015°24'2 4.3
2018-Jun-20 23:28N 38°25' E 015°26'2 4.3
2018-Jun-20 22:58N 38°25' E 015°29'2 4.4
2018-Jun-20 22:30N 38°25' E 015°32'2 4.4
2018-Jun-20 22:00N 38°25' E 015°34'2 4.5
2018-Jun-20 21:30N 38°25' E 015°37'2 4.5
2018-Jun-20 21:00N 38°24' E 015°40'9 4.4
2018-Jun-20 18:56N 38°15' E 015°40'4 8.6
2018-Jun-20 18:30N 38°12' E 015°37'4 8.4
2018-Jun-20 18:00N 38°08' E 015°37'5 9.3
2018-Jun-20 17:30N 38°04' E 015°36'510.6
2018-Jun-20 17:00N 37°58' E 015°36'  

Dump ship's entire track history